Perdue Hill, Alabama
Current Conditions -  °F | °C
As of 9:11 PM on Friday 19 Dec 2014 (Local Time) from KGZH Reporting Station
Moderate Rain Moderate Rain  
Wind Chill:   Ceiling: 3600
Heat Index:   Visibility: 3mi
Dew Point:   Wind: 3mph
Humidity: 93%   Direction: 40°NE
Pressure: 30.16"   Gusts: NA
Location:  31.51°N, 87.49°W
Report Text: KGZH 200311Z AUTO 04003KT 3SM RA BR SCT022 BKN036 OVC047 08/07 A3016 RMK AO2 P0004 T00830072
Loading
Personal Weather Stations






























Interactive Weather Map New forecast layout! Learn more

10-Day Weather Forecast

Advertisements
Track Severe Weather on mobile